METAR|ÜBERSETZT|TAF
EDHK 291120Z 21005KT CAVOK 19/17 Q1009
Login|Impressum|Kontakt



Anmeldung für Mitglieder

Bitte melden Sie sich an um den internen Bereich zu nutzen.
Benutzername:
Password: